sensor_id;sensor_type;location;lat;lon;timestamp;pressure;altitude;pressure_sealevel;temperature;humidity
78407;BME280;67692;51.074;-1.790;2024-03-08T00:01:57;100727.69;;;5.31;100.00
78407;BME280;67692;51.074;-1.790;2024-03-08T00:04:25;100725.03;;;5.33;100.00
78407;BME280;67692;51.074;-1.790;2024-03-08T00:06:51;100720.97;;;5.29;100.00
78407;BME280;67692;51.074;-1.790;2024-03-08T00:09:18;100724.50;;;5.26;100.00
78407;BME280;67692;51.074;-1.790;2024-03-08T00:11:47;100721.38;;;5.20;100.00
78407;BME280;67692;51.074;-1.790;2024-03-08T00:14:14;100723.19;;;5.18;100.00
78407;BME280;67692;51.074;-1.790;2024-03-08T00:16:41;100717.88;;;5.22;100.00
78407;BME280;67692;51.074;-1.790;2024-03-08T00:19:09;100715.50;;;5.18;100.00
78407;BME280;67692;51.074;-1.790;2024-03-08T00:21:37;100708.78;;;5.15;100.00
78407;BME280;67692;51.074;-1.790;2024-03-08T00:24:03;100714.50;;;5.20;100.00
78407;BME280;67692;51.074;-1.790;2024-03-08T00:26:30;100712.84;;;5.19;100.00
78407;BME280;67692;51.074;-1.790;2024-03-08T00:28:58;100701.00;;;5.17;100.00
78407;BME280;67692;51.074;-1.790;2024-03-08T00:31:25;100703.22;;;5.05;100.00
78407;BME280;67692;51.074;-1.790;2024-03-08T00:33:51;100697.22;;;5.06;100.00
78407;BME280;67692;51.074;-1.790;2024-03-08T00:36:19;100690.13;;;5.12;100.00
78407;BME280;67692;51.074;-1.790;2024-03-08T00:38:47;100687.41;;;5.15;100.00
78407;BME280;67692;51.074;-1.790;2024-03-08T00:41:13;100679.84;;;5.12;100.00
78407;BME280;67692;51.074;-1.790;2024-03-08T00:43:40;100678.34;;;5.07;100.00
78407;BME280;67692;51.074;-1.790;2024-03-08T00:46:06;100673.22;;;5.07;100.00
78407;BME280;67692;51.074;-1.790;2024-03-08T00:48:33;100659.75;;;5.02;100.00
78407;BME280;67692;51.074;-1.790;2024-03-08T00:51:00;100659.88;;;4.99;100.00
78407;BME280;67692;51.074;-1.790;2024-03-08T00:53:27;100651.69;;;4.91;100.00
78407;BME280;67692;51.074;-1.790;2024-03-08T00:55:55;100648.38;;;4.89;100.00
78407;BME280;67692;51.074;-1.790;2024-03-08T00:58:22;100661.69;;;4.97;100.00
78407;BME280;67692;51.074;-1.790;2024-03-08T01:00:49;100660.88;;;4.97;100.00
78407;BME280;67692;51.074;-1.790;2024-03-08T01:03:15;100653.44;;;4.91;100.00
78407;BME280;67692;51.074;-1.790;2024-03-08T01:05:42;100653.38;;;4.92;100.00
78407;BME280;67692;51.074;-1.790;2024-03-08T01:08:09;100651.69;;;4.91;100.00
78407;BME280;67692;51.074;-1.790;2024-03-08T01:10:37;100651.69;;;4.91;100.00
78407;BME280;67692;51.074;-1.790;2024-03-08T01:13:05;100647.22;;;4.96;100.00
78407;BME280;67692;51.074;-1.790;2024-03-08T01:15:31;100647.69;;;4.86;100.00
78407;BME280;67692;51.074;-1.790;2024-03-08T01:17:58;100640.00;;;4.86;100.00
78407;BME280;67692;51.074;-1.790;2024-03-08T01:20:26;100636.53;;;4.87;100.00
78407;BME280;67692;51.074;-1.790;2024-03-08T01:22:53;100634.88;;;4.86;100.00
78407;BME280;67692;51.074;-1.790;2024-03-08T01:25:19;100629.06;;;4.82;100.00
78407;BME280;67692;51.074;-1.790;2024-03-08T01:27:46;100626.63;;;4.79;100.00
78407;BME280;67692;51.074;-1.790;2024-03-08T01:30:14;100619.97;;;4.75;100.00
78407;BME280;67692;51.074;-1.790;2024-03-08T01:32:42;100622.53;;;4.75;100.00
78407;BME280;67692;51.074;-1.790;2024-03-08T01:35:09;100613.47;;;4.68;100.00
78407;BME280;67692;51.074;-1.790;2024-03-08T01:37:36;100610.81;;;4.69;100.00
78407;BME280;67692;51.074;-1.790;2024-03-08T01:40:03;100613.31;;;4.71;100.00
78407;BME280;67692;51.074;-1.790;2024-03-08T01:42:30;100598.97;;;4.67;100.00
78407;BME280;67692;51.074;-1.790;2024-03-08T01:44:56;100593.84;;;4.67;100.00
78407;BME280;67692;51.074;-1.790;2024-03-08T01:47:25;100581.84;;;4.67;100.00
78407;BME280;67692;51.074;-1.790;2024-03-08T01:49:52;100577.56;;;4.68;100.00
78407;BME280;67692;51.074;-1.790;2024-03-08T01:52:19;100575.25;;;4.62;100.00
78407;BME280;67692;51.074;-1.790;2024-03-08T01:54:46;100577.78;;;4.63;100.00
78407;BME280;67692;51.074;-1.790;2024-03-08T01:57:13;100565.22;;;4.57;100.00
78407;BME280;67692;51.074;-1.790;2024-03-08T01:59:40;100566.81;;;4.60;100.00
78407;BME280;67692;51.074;-1.790;2024-03-08T02:02:08;100562.31;;;4.65;100.00
78407;BME280;67692;51.074;-1.790;2024-03-08T02:04:40;100561.53;;;4.63;100.00
78407;BME280;67692;51.074;-1.790;2024-03-08T02:07:06;100547.06;;;4.62;100.00
78407;BME280;67692;51.074;-1.790;2024-03-08T02:09:33;100546.66;;;4.52;100.00
78407;BME280;67692;51.074;-1.790;2024-03-08T02:12:00;100550.91;;;4.53;100.00
78407;BME280;67692;51.074;-1.790;2024-03-08T02:14:27;100539.66;;;4.56;100.00
78407;BME280;67692;51.074;-1.790;2024-03-08T02:16:53;100535.66;;;4.50;100.00
78407;BME280;67692;51.074;-1.790;2024-03-08T02:19:23;100538.22;;;4.50;100.00
78407;BME280;67692;51.074;-1.790;2024-03-08T02:21:51;100529.75;;;4.48;100.00
78407;BME280;67692;51.074;-1.790;2024-03-08T02:24:18;100523.66;;;4.51;100.00
78407;BME280;67692;51.074;-1.790;2024-03-08T02:26:44;100526.91;;;4.54;100.00
78407;BME280;67692;51.074;-1.790;2024-03-08T02:29:11;100519.81;;;4.59;100.00
78407;BME280;67692;51.074;-1.790;2024-03-08T02:31:40;100516.44;;;4.59;100.00
78407;BME280;67692;51.074;-1.790;2024-03-08T02:34:06;100509.50;;;4.61;100.00
78407;BME280;67692;51.074;-1.790;2024-03-08T02:36:33;100510.63;;;4.55;100.00
78407;BME280;67692;51.074;-1.790;2024-03-08T02:39:02;100497.59;;;4.60;100.00
78407;BME280;67692;51.074;-1.790;2024-03-08T02:41:30;100502.78;;;4.58;100.00
78407;BME280;67692;51.074;-1.790;2024-03-08T02:43:57;100488.22;;;4.59;100.00
78407;BME280;67692;51.074;-1.790;2024-03-08T02:46:25;100483.81;;;4.43;100.00
78407;BME280;67692;51.074;-1.790;2024-03-08T02:48:53;100469.75;;;4.52;100.00
78407;BME280;67692;51.074;-1.790;2024-03-08T02:51:20;100471.56;;;4.50;100.00
78407;BME280;67692;51.074;-1.790;2024-03-08T02:53:47;100464.63;;;4.52;100.00
78407;BME280;67692;51.074;-1.790;2024-03-08T02:56:18;100460.47;;;4.50;100.00
78407;BME280;67692;51.074;-1.790;2024-03-08T02:58:47;100463.66;;;4.55;100.00
78407;BME280;67692;51.074;-1.790;2024-03-08T03:01:14;100455.19;;;4.53;100.00
78407;BME280;67692;51.074;-1.790;2024-03-08T03:03:40;100450.34;;;4.46;100.00
78407;BME280;67692;51.074;-1.790;2024-03-08T03:06:07;100445.22;;;4.46;100.00
78407;BME280;67692;51.074;-1.790;2024-03-08T03:08:34;100444.53;;;4.43;100.00
78407;BME280;67692;51.074;-1.790;2024-03-08T03:11:00;100440.88;;;4.48;100.00
78407;BME280;67692;51.074;-1.790;2024-03-08T03:13:28;100435.28;;;4.40;100.00
78407;BME280;67692;51.074;-1.790;2024-03-08T03:15:56;100426.69;;;4.41;100.00
78407;BME280;67692;51.074;-1.790;2024-03-08T03:18:23;100430.91;;;4.42;100.00
78407;BME280;67692;51.074;-1.790;2024-03-08T03:20:51;100417.25;;;4.42;100.00
78407;BME280;67692;51.074;-1.790;2024-03-08T03:23:18;100414.91;;;4.37;100.00
78407;BME280;67692;51.074;-1.790;2024-03-08T03:25:45;100412.34;;;4.37;100.00
78407;BME280;67692;51.074;-1.790;2024-03-08T03:28:12;100410.81;;;4.33;100.00
78407;BME280;67692;51.074;-1.790;2024-03-08T03:30:44;100402.44;;;4.30;100.00
78407;BME280;67692;51.074;-1.790;2024-03-08T03:33:12;100398.16;;;4.30;100.00
78407;BME280;67692;51.074;-1.790;2024-03-08T03:35:40;100403.13;;;4.33;100.00
78407;BME280;67692;51.074;-1.790;2024-03-08T03:38:08;100399.97;;;4.28;100.00
78407;BME280;67692;51.074;-1.790;2024-03-08T03:40:35;100393.03;;;4.30;100.00
78407;BME280;67692;51.074;-1.790;2024-03-08T03:43:03;100383.34;;;4.37;100.00
78407;BME280;67692;51.074;-1.790;2024-03-08T03:45:30;100390.47;;;4.30;100.00
78407;BME280;67692;51.074;-1.790;2024-03-08T03:48:02;100391.09;;;4.35;100.00
78407;BME280;67692;51.074;-1.790;2024-03-08T03:50:28;100381.69;;;4.36;100.00
78407;BME280;67692;51.074;-1.790;2024-03-08T03:52:55;100381.75;;;4.34;100.00
78407;BME280;67692;51.074;-1.790;2024-03-08T03:55:22;100372.84;;;4.41;100.00
78407;BME280;67692;51.074;-1.790;2024-03-08T03:57:48;100374.56;;;4.41;100.00
78407;BME280;67692;51.074;-1.790;2024-03-08T04:00:16;100376.53;;;4.36;100.00
78407;BME280;67692;51.074;-1.790;2024-03-08T04:02:42;100367.25;;;4.33;100.00
78407;BME280;67692;51.074;-1.790;2024-03-08T04:05:11;100363.09;;;4.31;100.00
78407;BME280;67692;51.074;-1.790;2024-03-08T04:07:38;100360.25;;;4.20;100.00
78407;BME280;67692;51.074;-1.790;2024-03-08T04:10:06;100357.47;;;4.24;100.00
78407;BME280;67692;51.074;-1.790;2024-03-08T04:12:34;100357.31;;;4.27;100.00
78407;BME280;67692;51.074;-1.790;2024-03-08T04:15:01;100357.16;;;4.30;100.00
78407;BME280;67692;51.074;-1.790;2024-03-08T04:17:28;100352.94;;;4.29;100.00
78407;BME280;67692;51.074;-1.790;2024-03-08T04:19:54;100349.03;;;4.22;100.00
78407;BME280;67692;51.074;-1.790;2024-03-08T04:22:23;100344.00;;;4.19;100.00
78407;BME280;67692;51.074;-1.790;2024-03-08T04:24:50;100337.38;;;4.15;100.00
78407;BME280;67692;51.074;-1.790;2024-03-08T04:27:17;100339.19;;;4.13;100.00
78407;BME280;67692;51.074;-1.790;2024-03-08T04:29:44;100335.56;;;4.17;100.00
78407;BME280;67692;51.074;-1.790;2024-03-08T04:32:12;100329.78;;;4.13;100.00
78407;BME280;67692;51.074;-1.790;2024-03-08T04:34:38;100329.69;;;4.15;100.00
78407;BME280;67692;51.074;-1.790;2024-03-08T04:37:05;100326.16;;;4.17;100.00
78407;BME280;67692;51.074;-1.790;2024-03-08T04:39:33;100321.75;;;4.21;100.00
78407;BME280;67692;51.074;-1.790;2024-03-08T04:42:02;100317.72;;;4.15;100.00
78407;BME280;67692;51.074;-1.790;2024-03-08T04:44:30;100317.03;;;4.12;100.00
78407;BME280;67692;51.074;-1.790;2024-03-08T04:46:57;100313.56;;;4.13;100.00
78407;BME280;67692;51.074;-1.790;2024-03-08T04:49:24;100305.16;;;4.11;100.00
78407;BME280;67692;51.074;-1.790;2024-03-08T04:51:51;100304.09;;;4.15;100.00
78407;BME280;67692;51.074;-1.790;2024-03-08T04:54:17;100302.66;;;4.09;100.00
78407;BME280;67692;51.074;-1.790;2024-03-08T04:56:45;100303.31;;;4.13;100.00
78407;BME280;67692;51.074;-1.790;2024-03-08T04:59:12;100285.78;;;4.05;100.00
78407;BME280;67692;51.074;-1.790;2024-03-08T05:01:39;100286.47;;;4.09;100.00
78407;BME280;67692;51.074;-1.790;2024-03-08T05:04:05;100281.19;;;4.12;100.00
78407;BME280;67692;51.074;-1.790;2024-03-08T05:06:32;100281.19;;;4.12;100.00
78407;BME280;67692;51.074;-1.790;2024-03-08T05:08:59;100280.59;;;4.07;100.00
78407;BME280;67692;51.074;-1.790;2024-03-08T05:11:25;100279.81;;;4.05;100.00
78407;BME280;67692;51.074;-1.790;2024-03-08T05:13:53;100274.63;;;4.06;100.00
78407;BME280;67692;51.074;-1.790;2024-03-08T05:16:21;100276.06;;;4.12;100.00
78407;BME280;67692;51.074;-1.790;2024-03-08T05:18:49;100272.34;;;4.00;100.00
78407;BME280;67692;51.074;-1.790;2024-03-08T05:21:16;100277.25;;;4.05;100.00
78407;BME280;67692;51.074;-1.790;2024-03-08T05:23:45;100267.69;;;4.08;100.00
78407;BME280;67692;51.074;-1.790;2024-03-08T05:26:12;100267.22;;;4.00;100.00
78407;BME280;67692;51.074;-1.790;2024-03-08T05:28:39;100261.28;;;4.00;100.00
78407;BME280;67692;51.074;-1.790;2024-03-08T05:31:07;100262.25;;;3.97;100.00
78407;BME280;67692;51.074;-1.790;2024-03-08T05:33:34;100256.47;;;3.94;100.00
78407;BME280;67692;51.074;-1.790;2024-03-08T05:36:01;100248.69;;;3.95;100.00
78407;BME280;67692;51.074;-1.790;2024-03-08T05:38:27;100258.63;;;4.01;100.00
78407;BME280;67692;51.074;-1.790;2024-03-08T05:40:54;100263.09;;;3.98;100.00
78407;BME280;67692;51.074;-1.790;2024-03-08T05:43:21;100251.03;;;4.00;100.00
78407;BME280;67692;51.074;-1.790;2024-03-08T05:45:48;100254.66;;;3.96;100.00
78407;BME280;67692;51.074;-1.790;2024-03-08T05:48:16;100264.97;;;3.94;100.00
78407;BME280;67692;51.074;-1.790;2024-03-08T05:50:44;100254.41;;;4.00;100.00
78407;BME280;67692;51.074;-1.790;2024-03-08T05:53:10;100256.16;;;4.00;100.00
78407;BME280;67692;51.074;-1.790;2024-03-08T05:55:38;100262.09;;;4.00;100.00
78407;BME280;67692;51.074;-1.790;2024-03-08T05:58:05;100247.56;;;4.01;100.00
78407;BME280;67692;51.074;-1.790;2024-03-08T06:00:33;100256.91;;;4.02;100.00
78407;BME280;67692;51.074;-1.790;2024-03-08T06:03:01;100258.28;;;3.92;100.00
78407;BME280;67692;51.074;-1.790;2024-03-08T06:05:30;100259.03;;;3.94;100.00
78407;BME280;67692;51.074;-1.790;2024-03-08T06:07:56;100263.75;;;3.84;100.00
78407;BME280;67692;51.074;-1.790;2024-03-08T06:10:23;100270.59;;;3.83;100.00
78407;BME280;67692;51.074;-1.790;2024-03-08T06:12:50;100275.88;;;3.80;100.00
78407;BME280;67692;51.074;-1.790;2024-03-08T06:15:16;100274.41;;;3.75;100.00
78407;BME280;67692;51.074;-1.790;2024-03-08T06:17:46;100270.09;;;3.77;100.00
78407;BME280;67692;51.074;-1.790;2024-03-08T06:20:12;100260.78;;;3.74;100.00
78407;BME280;67692;51.074;-1.790;2024-03-08T06:22:41;100256.72;;;3.70;100.00
78407;BME280;67692;51.074;-1.790;2024-03-08T06:25:08;100254.75;;;3.75;100.00
78407;BME280;67692;51.074;-1.790;2024-03-08T06:27:36;100257.47;;;3.72;100.00
78407;BME280;67692;51.074;-1.790;2024-03-08T06:30:04;100254.00;;;3.73;100.00
78407;BME280;67692;51.074;-1.790;2024-03-08T06:32:32;100257.41;;;3.74;100.00
78407;BME280;67692;51.074;-1.790;2024-03-08T06:35:01;100260.78;;;3.74;100.00
78407;BME280;67692;51.074;-1.790;2024-03-08T06:37:27;100264.41;;;3.70;100.00
78407;BME280;67692;51.074;-1.790;2024-03-08T06:39:58;100255.81;;;3.71;100.00
78407;BME280;67692;51.074;-1.790;2024-03-08T06:42:26;100251.44;;;3.73;100.00
78407;BME280;67692;51.074;-1.790;2024-03-08T06:44:53;100249.03;;;3.70;100.00
78407;BME280;67692;51.074;-1.790;2024-03-08T06:47:21;100258.59;;;3.67;100.00
78407;BME280;67692;51.074;-1.790;2024-03-08T06:49:50;100260.13;;;3.71;100.00
78407;BME280;67692;51.074;-1.790;2024-03-08T06:52:17;100249.88;;;3.71;100.00
78407;BME280;67692;51.074;-1.790;2024-03-08T06:54:44;100252.22;;;3.75;100.00
78407;BME280;67692;51.074;-1.790;2024-03-08T06:57:12;100256.50;;;3.75;100.00
78407;BME280;67692;51.074;-1.790;2024-03-08T06:59:39;100263.50;;;3.71;100.00
78407;BME280;67692;51.074;-1.790;2024-03-08T07:02:06;100261.16;;;3.67;100.00
78407;BME280;67692;51.074;-1.790;2024-03-08T07:04:34;100253.25;;;3.71;100.00
78407;BME280;67692;51.074;-1.790;2024-03-08T07:07:03;100259.13;;;3.73;100.00
78407;BME280;67692;51.074;-1.790;2024-03-08T07:09:30;100248.88;;;3.73;100.00
78407;BME280;67692;51.074;-1.790;2024-03-08T07:11:57;100244.47;;;3.77;100.00
78407;BME280;67692;51.074;-1.790;2024-03-08T07:14:25;100238.53;;;3.76;100.00
78407;BME280;67692;51.074;-1.790;2024-03-08T07:16:52;100248.78;;;3.76;100.00
78407;BME280;67692;51.074;-1.790;2024-03-08T07:19:18;100241.13;;;3.75;100.00
78407;BME280;67692;51.074;-1.790;2024-03-08T07:21:46;100242.66;;;3.79;100.00
78407;BME280;67692;51.074;-1.790;2024-03-08T07:24:13;100237.66;;;3.76;100.00
78407;BME280;67692;51.074;-1.790;2024-03-08T07:26:58;100240.19;;;3.77;100.00
78407;BME280;67692;51.074;-1.790;2024-03-08T07:29:26;100227.31;;;3.79;100.00
78407;BME280;67692;51.074;-1.790;2024-03-08T07:31:53;100229.25;;;3.74;100.00
78407;BME280;67692;51.074;-1.790;2024-03-08T07:34:33;100225.84;;;3.73;100.00
78407;BME280;67692;51.074;-1.790;2024-03-08T07:36:59;100230.91;;;3.75;100.00
78407;BME280;67692;51.074;-1.790;2024-03-08T07:39:26;100231.19;;;3.69;100.00
78407;BME280;67692;51.074;-1.790;2024-03-08T07:41:53;100227.22;;;3.80;100.00
78407;BME280;67692;51.074;-1.790;2024-03-08T07:44:19;100221.47;;;3.75;100.00
78407;BME280;67692;51.074;-1.790;2024-03-08T07:46:47;100222.03;;;3.82;100.00
78407;BME280;67692;51.074;-1.790;2024-03-08T07:49:14;100226.00;;;3.87;100.00
78407;BME280;67692;51.074;-1.790;2024-03-08T07:51:41;100221.94;;;3.83;100.00
78407;BME280;67692;51.074;-1.790;2024-03-08T07:54:07;100219.16;;;3.88;100.00
78407;BME280;67692;51.074;-1.790;2024-03-08T07:56:35;100216.47;;;3.91;100.00
78407;BME280;67692;51.074;-1.790;2024-03-08T07:59:02;100210.56;;;3.89;100.00
78407;BME280;67692;51.074;-1.790;2024-03-08T08:01:29;100206.81;;;3.96;100.00
78407;BME280;67692;51.074;-1.790;2024-03-08T08:03:57;100209.88;;;4.03;100.00
78407;BME280;67692;51.074;-1.790;2024-03-08T08:06:24;100209.06;;;4.02;100.00
78407;BME280;67692;51.074;-1.790;2024-03-08T08:08:51;100192.94;;;4.00;100.00
78407;BME280;67692;51.074;-1.790;2024-03-08T08:11:17;100188.50;;;4.04;100.00
78407;BME280;67692;51.074;-1.790;2024-03-08T08:13:45;100182.41;;;4.06;100.00
78407;BME280;67692;51.074;-1.790;2024-03-08T08:16:12;100171.19;;;4.09;100.00
78407;BME280;67692;51.074;-1.790;2024-03-08T08:18:39;100164.81;;;4.16;100.00
78407;BME280;67692;51.074;-1.790;2024-03-08T08:21:08;100164.59;;;4.21;100.00
78407;BME280;67692;51.074;-1.790;2024-03-08T08:23:36;100170.31;;;4.26;100.00
78407;BME280;67692;51.074;-1.790;2024-03-08T08:26:03;100164.28;;;4.27;100.00
78407;BME280;67692;51.074;-1.790;2024-03-08T08:28:30;100165.78;;;4.31;100.00
78407;BME280;67692;51.074;-1.790;2024-03-08T08:30:56;100154.97;;;4.41;100.00
78407;BME280;67692;51.074;-1.790;2024-03-08T08:33:24;100150.50;;;4.45;100.00
78407;BME280;67692;51.074;-1.790;2024-03-08T08:35:52;100147.56;;;4.53;100.00
78407;BME280;67692;51.074;-1.790;2024-03-08T08:38:20;100136.78;;;4.46;100.00
78407;BME280;67692;51.074;-1.790;2024-03-08T08:40:48;100137.28;;;4.53;100.00
78407;BME280;67692;51.074;-1.790;2024-03-08T08:43:15;100141.34;;;4.57;100.00
78407;BME280;67692;51.074;-1.790;2024-03-08T08:45:43;100132.56;;;4.61;100.00
78407;BME280;67692;51.074;-1.790;2024-03-08T08:48:10;100128.34;;;4.60;100.00
78407;BME280;67692;51.074;-1.790;2024-03-08T08:50:36;100127.06;;;4.68;100.00
78407;BME280;67692;51.074;-1.790;2024-03-08T08:53:03;100125.31;;;4.69;100.00
78407;BME280;67692;51.074;-1.790;2024-03-08T08:55:33;100122.19;;;4.80;100.00
78407;BME280;67692;51.074;-1.790;2024-03-08T08:58:01;100114.47;;;4.80;100.00
78407;BME280;67692;51.074;-1.790;2024-03-08T09:00:29;100111.66;;;4.84;100.00
78407;BME280;67692;51.074;-1.790;2024-03-08T09:02:57;100104.53;;;4.89;100.00
78407;BME280;67692;51.074;-1.790;2024-03-08T09:05:24;100103.69;;;4.89;100.00
78407;BME280;67692;51.074;-1.790;2024-03-08T09:07:51;100100.00;;;4.94;100.00
78407;BME280;67692;51.074;-1.790;2024-03-08T09:10:19;100091.13;;;5.00;100.00
78407;BME280;67692;51.074;-1.790;2024-03-08T09:12:48;100097.81;;;5.02;100.00
78407;BME280;67692;51.074;-1.790;2024-03-08T09:15:14;100097.56;;;5.07;100.00
78407;BME280;67692;51.074;-1.790;2024-03-08T09:17:43;100098.13;;;5.12;100.00
78407;BME280;67692;51.074;-1.790;2024-03-08T09:20:10;100095.13;;;5.20;100.00
78407;BME280;67692;51.074;-1.790;2024-03-08T09:22:40;100091.31;;;5.27;100.00
78407;BME280;67692;51.074;-1.790;2024-03-08T09:25:07;100086.75;;;5.32;99.32
78407;BME280;67692;51.074;-1.790;2024-03-08T09:27:35;100085.41;;;5.41;99.52
78407;BME280;67692;51.074;-1.790;2024-03-08T09:30:03;100083.47;;;5.44;98.56
78407;BME280;67692;51.074;-1.790;2024-03-08T09:32:32;100074.84;;;5.45;98.49
78407;BME280;67692;51.074;-1.790;2024-03-08T09:34:58;100075.34;;;5.52;97.94
78407;BME280;67692;51.074;-1.790;2024-03-08T09:37:26;100070.03;;;5.55;97.89
78407;BME280;67692;51.074;-1.790;2024-03-08T09:39:53;100070.47;;;5.61;96.91
78407;BME280;67692;51.074;-1.790;2024-03-08T09:42:19;100066.75;;;5.67;97.08
78407;BME280;67692;51.074;-1.790;2024-03-08T09:44:47;100069.78;;;5.74;97.01
78407;BME280;67692;51.074;-1.790;2024-03-08T09:47:15;100058.38;;;5.78;95.88
78407;BME280;67692;51.074;-1.790;2024-03-08T09:49:42;100056.47;;;5.81;95.01
78407;BME280;67692;51.074;-1.790;2024-03-08T09:52:09;100057.94;;;5.85;94.85
78407;BME280;67692;51.074;-1.790;2024-03-08T09:54:38;100054.28;;;5.89;95.07
78407;BME280;67692;51.074;-1.790;2024-03-08T09:57:06;100042.56;;;6.00;94.65
78407;BME280;67692;51.074;-1.790;2024-03-08T09:59:34;100048.06;;;6.08;94.18
78407;BME280;67692;51.074;-1.790;2024-03-08T10:02:15;100045.75;;;6.17;93.59
78407;BME280;67692;51.074;-1.790;2024-03-08T10:04:43;100046.31;;;6.22;91.45
78407;BME280;67692;51.074;-1.790;2024-03-08T10:07:11;100034.00;;;6.28;91.97
78407;BME280;67692;51.074;-1.790;2024-03-08T10:09:38;100046.47;;;6.34;91.42
78407;BME280;67692;51.074;-1.790;2024-03-08T10:12:06;100035.81;;;6.40;90.13
78407;BME280;67692;51.074;-1.790;2024-03-08T10:14:33;100032.75;;;6.47;90.24
78407;BME280;67692;51.074;-1.790;2024-03-08T10:17:00;100036.50;;;6.56;90.25
78407;BME280;67692;51.074;-1.790;2024-03-08T10:19:28;100030.75;;;6.65;90.24
78407;BME280;67692;51.074;-1.790;2024-03-08T10:21:55;100018.03;;;6.76;89.84
78407;BME280;67692;51.074;-1.790;2024-03-08T10:24:24;100014.38;;;6.80;88.45
78407;BME280;67692;51.074;-1.790;2024-03-08T10:26:52;100012.53;;;6.82;88.18
78407;BME280;67692;51.074;-1.790;2024-03-08T10:29:19;100015.00;;;6.84;87.66
78407;BME280;67692;51.074;-1.790;2024-03-08T10:31:47;99994.78;;;6.78;87.56
78407;BME280;67692;51.074;-1.790;2024-03-08T10:34:15;100009.41;;;6.77;87.65
78407;BME280;67692;51.074;-1.790;2024-03-08T10:36:44;100002.41;;;6.79;88.02
78407;BME280;67692;51.074;-1.790;2024-03-08T10:39:20;99996.88;;;6.85;87.83
78407;BME280;67692;51.074;-1.790;2024-03-08T10:41:52;100002.75;;;6.88;88.50
78407;BME280;67692;51.074;-1.790;2024-03-08T10:44:31;99988.75;;;6.92;87.78
78407;BME280;67692;51.074;-1.790;2024-03-08T10:47:01;99982.91;;;7.02;87.51
78407;BME280;67692;51.074;-1.790;2024-03-08T10:49:32;99967.81;;;7.10;87.41
78407;BME280;67692;51.074;-1.790;2024-03-08T10:52:03;99966.47;;;7.18;87.13
78407;BME280;67692;51.074;-1.790;2024-03-08T10:54:30;99966.56;;;7.29;87.03
78407;BME280;67692;51.074;-1.790;2024-03-08T10:56:59;99964.22;;;7.38;85.45
78407;BME280;67692;51.074;-1.790;2024-03-08T10:59:26;99954.53;;;7.42;85.60
78407;BME280;67692;51.074;-1.790;2024-03-08T11:01:54;99947.72;;;7.54;84.99
78407;BME280;67692;51.074;-1.790;2024-03-08T11:04:20;99952.00;;;7.66;83.25
78407;BME280;67692;51.074;-1.790;2024-03-08T11:06:50;99953.75;;;7.65;82.29
78407;BME280;67692;51.074;-1.790;2024-03-08T11:09:29;99953.25;;;7.73;82.54
78407;BME280;67692;51.074;-1.790;2024-03-08T11:12:18;99940.03;;;7.78;81.96
78407;BME280;67692;51.074;-1.790;2024-03-08T11:14:45;99946.94;;;7.77;81.65
78407;BME280;67692;51.074;-1.790;2024-03-08T11:17:15;99934.38;;;7.85;80.66
78407;BME280;67692;51.074;-1.790;2024-03-08T11:19:46;99936.13;;;7.85;81.41
78407;BME280;67692;51.074;-1.790;2024-03-08T11:22:21;99940.22;;;7.87;79.69
78407;BME280;67692;51.074;-1.790;2024-03-08T11:24:50;99939.78;;;7.93;79.23
78407;BME280;67692;51.074;-1.790;2024-03-08T11:27:17;99937.53;;;7.89;78.22
78407;BME280;67692;51.074;-1.790;2024-03-08T11:29:59;99934.63;;;7.93;79.00
78407;BME280;67692;51.074;-1.790;2024-03-08T11:32:28;99929.19;;;7.98;78.98
78407;BME280;67692;51.074;-1.790;2024-03-08T11:34:55;99920.88;;;8.05;76.89
78407;BME280;67692;51.074;-1.790;2024-03-08T11:37:22;99923.06;;;8.12;77.24
78407;BME280;67692;51.074;-1.790;2024-03-08T11:39:51;99921.19;;;8.14;77.02
78407;BME280;67692;51.074;-1.790;2024-03-08T11:42:24;99915.34;;;8.23;76.18
78407;BME280;67692;51.074;-1.790;2024-03-08T11:44:52;99910.00;;;8.26;76.54
78407;BME280;67692;51.074;-1.790;2024-03-08T11:47:20;99917.78;;;8.37;77.21
78407;BME280;67692;51.074;-1.790;2024-03-08T11:49:47;99920.53;;;8.47;76.21
78407;BME280;67692;51.074;-1.790;2024-03-08T11:52:15;99911.75;;;8.49;75.34
78407;BME280;67692;51.074;-1.790;2024-03-08T11:54:45;99915.84;;;8.52;74.37
78407;BME280;67692;51.074;-1.790;2024-03-08T11:57:17;99908.47;;;8.47;73.11
78407;BME280;67692;51.074;-1.790;2024-03-08T11:59:49;99901.06;;;8.43;72.45
78407;BME280;67692;51.074;-1.790;2024-03-08T12:02:16;99904.94;;;8.48;72.99
78407;BME280;67692;51.074;-1.790;2024-03-08T12:04:44;99903.59;;;8.55;72.92
78407;BME280;67692;51.074;-1.790;2024-03-08T12:07:11;99897.00;;;8.62;71.72
78407;BME280;67692;51.074;-1.790;2024-03-08T12:09:40;99893.28;;;8.67;71.09
78407;BME280;67692;51.074;-1.790;2024-03-08T12:12:11;99890.25;;;8.73;71.41
78407;BME280;67692;51.074;-1.790;2024-03-08T12:14:43;99892.13;;;8.71;70.57
78407;BME280;67692;51.074;-1.790;2024-03-08T12:17:09;99887.78;;;8.71;71.65
78407;BME280;67692;51.074;-1.790;2024-03-08T12:19:36;99894.72;;;8.71;70.68
78407;BME280;67692;51.074;-1.790;2024-03-08T12:22:08;99884.28;;;8.72;71.43
78407;BME280;67692;51.074;-1.790;2024-03-08T12:24:35;99880.41;;;8.78;71.31
78407;BME280;67692;51.074;-1.790;2024-03-08T12:27:17;99880.16;;;8.81;69.56
78407;BME280;67692;51.074;-1.790;2024-03-08T12:29:45;99870.56;;;8.83;69.91
78407;BME280;67692;51.074;-1.790;2024-03-08T12:32:12;99865.16;;;8.86;70.44
78407;BME280;67692;51.074;-1.790;2024-03-08T12:34:39;99859.31;;;8.84;69.68
78407;BME280;67692;51.074;-1.790;2024-03-08T12:37:06;99851.06;;;8.79;69.93
78407;BME280;67692;51.074;-1.790;2024-03-08T12:39:34;99843.31;;;8.79;70.26
78407;BME280;67692;51.074;-1.790;2024-03-08T12:42:02;99833.69;;;8.81;69.83
78407;BME280;67692;51.074;-1.790;2024-03-08T12:44:29;99834.91;;;8.88;70.22
78407;BME280;67692;51.074;-1.790;2024-03-08T12:46:57;99829.50;;;8.91;70.46
78407;BME280;67692;51.074;-1.790;2024-03-08T12:49:24;99825.72;;;8.95;69.44